Garibaldi, Canada
Current Conditions -  °F | °C
As of 2:00 AM on Saturday 25 Oct 2014 (Local Time) from CYVR Reporting Station
Light Rain Light Rain  
Wind Chill: 50°   Ceiling: 6700
Heat Index: 50°   Visibility: 15mi
Dew Point: 45°   Wind: 5mph
Humidity: 82%   Direction: 10°N
Pressure: 29.75"   Gusts: NA
Location:  49.98°N, 123.15°W
Report Text: CYVR 250900Z 01004KT 15SM -RA SCT039 OVC067 10/07 A2975 RMK SC3AC5 SLP074
Loading
Personal Weather Stations






























Interactive Weather Map
Tropical Storm Tracking
New forecast layout! Learn more

10-Day Weather Forecast

Advertisements
Track Severe Weather on mobile